Marble Falls, Arkansas
Current Conditions -  °F | °C
As of 6:53 PM on Saturday 20 Dec 2014 (Local Time) from KHRO Reporting Station
Overcast Overcast  
Wind Chill: 38°   Ceiling: 2400
Heat Index: 41°   Visibility: 10mi
Dew Point: 39°   Wind: 5mph
Humidity: 93%   Direction: 150°SSE
Pressure: 30.19"   Gusts: NA
Location:  36.09°N, 93.15°W
Report Text: KHRO 210053Z AUTO 15004KT 10SM OVC024 05/04 A3019 RMK AO2 SLP229 T00500039 $
Loading
Personal Weather Stations






























Interactive Weather Map New forecast layout! Learn more

10-Day Weather Forecast

Advertisements
Track Severe Weather on mobile